sensor_id;sensor_type;location;lat;lon;timestamp;pressure;altitude;pressure_sealevel;temperature;humidity
19761;BME280;10039;42.632;23.408;2023-03-19T00:01:25;95566.88;;;2.79;63.69
19761;BME280;10039;42.632;23.408;2023-03-19T00:03:50;95561.25;;;2.62;nan
19761;BME280;10039;42.632;23.408;2023-03-19T00:06:16;95543.03;;;2.53;64.04
19761;BME280;10039;42.632;23.408;2023-03-19T00:08:41;95535.47;;;2.52;63.91
19761;BME280;10039;42.632;23.408;2023-03-19T00:11:11;95552.19;;;2.59;64.07
19761;BME280;10039;42.632;23.408;2023-03-19T00:13:37;95557.38;;;2.56;64.35
19761;BME280;10039;42.632;23.408;2023-03-19T00:16:04;95552.19;;;2.59;63.97
19761;BME280;10039;42.632;23.408;2023-03-19T00:18:30;95555.88;;;2.74;63.99
19761;BME280;10039;42.632;23.408;2023-03-19T00:20:55;95531.31;;;2.51;63.96
19761;BME280;10039;42.632;23.408;2023-03-19T00:23:21;95553.88;;;2.67;64.21
19761;BME280;10039;42.632;23.408;2023-03-19T00:25:46;95545.25;;;2.51;64.55
19761;BME280;10039;42.632;23.408;2023-03-19T00:28:12;95545.88;;;2.64;64.33
19761;BME280;10039;42.632;23.408;2023-03-19T00:30:37;95539.00;;;2.59;64.18
19761;BME280;10039;42.632;23.408;2023-03-19T00:33:03;95536.59;;;2.51;64.32
19761;BME280;10039;42.632;23.408;2023-03-19T00:35:28;95534.91;;;2.62;64.26
19761;BME280;10039;42.632;23.408;2023-03-19T00:37:54;95529.84;;;2.53;64.02
19761;BME280;10039;42.632;23.408;2023-03-19T00:40:19;95528.59;;;2.47;64.39
19761;BME280;10039;42.632;23.408;2023-03-19T00:42:46;95530.34;;;2.59;64.32
19761;BME280;10039;42.632;23.408;2023-03-19T00:45:11;95528.69;;;2.51;64.17
19761;BME280;10039;42.632;23.408;2023-03-19T00:47:37;95526.22;;;2.42;64.43
19761;BME280;10039;42.632;23.408;2023-03-19T00:50:03;95533.72;;;2.40;64.39
19761;BME280;10039;42.632;23.408;2023-03-19T00:52:30;95518.28;;;2.39;64.39
19761;BME280;10039;42.632;23.408;2023-03-19T00:54:55;95516.53;;;2.27;64.77
19761;BME280;10039;42.632;23.408;2023-03-19T00:57:21;95526.09;;;2.35;64.99
19761;BME280;10039;42.632;23.408;2023-03-19T00:59:47;95521.44;;;2.29;64.62
19761;BME280;10039;42.632;23.408;2023-03-19T01:02:12;95487.81;;;2.04;64.74
19761;BME280;10039;42.632;23.408;2023-03-19T01:04:37;95527.22;;;2.34;64.97
19761;BME280;10039;42.632;23.408;2023-03-19T01:07:03;95517.91;;;2.40;64.76
19761;BME280;10039;42.632;23.408;2023-03-19T01:09:28;95519.00;;;2.20;65.09
19761;BME280;10039;42.632;23.408;2023-03-19T01:11:54;95523.31;;;2.28;65.14
19761;BME280;10039;42.632;23.408;2023-03-19T01:14:20;95517.63;;;2.26;65.10
19761;BME280;10039;42.632;23.408;2023-03-19T01:16:46;95524.03;;;2.10;65.57
19761;BME280;10039;42.632;23.408;2023-03-19T01:19:11;95511.09;;;2.02;65.55
19761;BME280;10039;42.632;23.408;2023-03-19T01:21:36;95519.63;;;2.14;65.60
19761;BME280;10039;42.632;23.408;2023-03-19T01:24:02;95505.84;;;2.20;65.67
19761;BME280;10039;42.632;23.408;2023-03-19T01:26:27;95512.66;;;2.40;64.91
19761;BME280;10039;42.632;23.408;2023-03-19T01:28:53;95506.09;;;2.16;65.24
19761;BME280;10039;42.632;23.408;2023-03-19T01:31:18;95511.72;;;2.14;65.54
19761;BME280;10039;42.632;23.408;2023-03-19T01:33:44;95495.84;;;2.11;65.34
19761;BME280;10039;42.632;23.408;2023-03-19T01:36:10;95480.53;;;1.82;65.71
19761;BME280;10039;42.632;23.408;2023-03-19T01:38:36;95513.44;;;2.07;65.50
19761;BME280;10039;42.632;23.408;2023-03-19T01:41:01;95511.47;;;2.19;65.33
19761;BME280;10039;42.632;23.408;2023-03-19T01:43:29;95509.69;;;2.08;65.85
19761;BME280;10039;42.632;23.408;2023-03-19T01:48:42;95502.16;;;2.06;65.39
19761;BME280;10039;42.632;23.408;2023-03-19T01:51:10;95507.56;;;2.13;65.06
19761;BME280;10039;42.632;23.408;2023-03-19T01:53:37;95496.69;;;2.15;65.04
19761;BME280;10039;42.632;23.408;2023-03-19T01:56:17;95509.31;;;2.43;64.77
19761;BME280;10039;42.632;23.408;2023-03-19T01:58:45;95509.81;;;2.68;64.16
19761;BME280;10039;42.632;23.408;2023-03-19T02:01:11;95506.22;;;2.57;63.49
19761;BME280;10039;42.632;23.408;2023-03-19T02:03:38;95507.63;;;2.70;63.53
19761;BME280;10039;42.632;23.408;2023-03-19T02:06:05;95521.53;;;2.51;63.31
19761;BME280;10039;42.632;23.408;2023-03-19T02:08:32;95513.94;;;2.65;63.24
19761;BME280;10039;42.632;23.408;2023-03-19T02:10:58;95514.19;;;2.79;62.89
19761;BME280;10039;42.632;23.408;2023-03-19T02:13:25;95506.66;;;2.78;62.90
19761;BME280;10039;42.632;23.408;2023-03-19T02:15:52;95500.00;;;2.84;62.70
19761;BME280;10039;42.632;23.408;2023-03-19T02:18:18;95509.66;;;2.99;62.17
19761;BME280;10039;42.632;23.408;2023-03-19T02:21:10;95514.47;;;2.93;62.58
19761;BME280;10039;42.632;23.408;2023-03-19T02:24:12;95504.09;;;2.62;61.98
19761;BME280;10039;42.632;23.408;2023-03-19T02:26:40;95515.59;;;2.54;62.75
19761;BME280;10039;42.632;23.408;2023-03-19T02:29:06;95522.78;;;2.57;63.09
19761;BME280;10039;42.632;23.408;2023-03-19T02:31:32;95519.19;;;2.65;62.94
19761;BME280;10039;42.632;23.408;2023-03-19T02:34:31;95526.84;;;2.36;63.52
19761;BME280;10039;42.632;23.408;2023-03-19T02:36:59;95521.06;;;2.46;63.47
19761;BME280;10039;42.632;23.408;2023-03-19T02:39:37;95522.16;;;2.64;63.37
19761;BME280;10039;42.632;23.408;2023-03-19T02:42:05;95494.94;;;2.56;63.27
19761;BME280;10039;42.632;23.408;2023-03-19T02:44:31;95505.72;;;2.32;63.83
19761;BME280;10039;42.632;23.408;2023-03-19T02:46:56;95508.94;;;2.07;64.52
19761;BME280;10039;42.632;23.408;2023-03-19T02:49:22;95513.56;;;1.95;65.72
19761;BME280;10039;42.632;23.408;2023-03-19T02:51:48;95498.91;;;1.78;65.71
19761;BME280;10039;42.632;23.408;2023-03-19T02:54:13;95504.09;;;1.75;66.75
19761;BME280;10039;42.632;23.408;2023-03-19T02:56:39;95519.44;;;1.73;67.08
19761;BME280;10039;42.632;23.408;2023-03-19T02:59:04;95517.38;;;1.66;67.12
19761;BME280;10039;42.632;23.408;2023-03-19T03:01:29;95504.34;;;1.70;67.07
19761;BME280;10039;42.632;23.408;2023-03-19T03:03:55;95516.91;;;1.61;67.79
19761;BME280;10039;42.632;23.408;2023-03-19T03:06:20;95506.19;;;1.54;67.74
19761;BME280;10039;42.632;23.408;2023-03-19T03:08:46;95516.47;;;1.59;67.95
19761;BME280;10039;42.632;23.408;2023-03-19T03:11:11;95520.53;;;1.72;67.45
19761;BME280;10039;42.632;23.408;2023-03-19T03:13:37;95519.34;;;1.69;67.22
19761;BME280;10039;42.632;23.408;2023-03-19T03:16:02;95526.22;;;1.74;67.29
19761;BME280;10039;42.632;23.408;2023-03-19T03:18:28;95526.72;;;1.64;67.49
19761;BME280;10039;42.632;23.408;2023-03-19T03:20:53;95538.25;;;1.44;67.79
19761;BME280;10039;42.632;23.408;2023-03-19T03:23:19;95534.53;;;1.45;67.47
19761;BME280;10039;42.632;23.408;2023-03-19T03:25:48;95548.88;;;1.47;67.43
19761;BME280;10039;42.632;23.408;2023-03-19T03:28:15;95536.31;;;1.72;67.00
19761;BME280;10039;42.632;23.408;2023-03-19T03:30:40;95545.53;;;1.97;66.29
19761;BME280;10039;42.632;23.408;2023-03-19T03:33:06;95546.06;;;1.87;65.77
19761;BME280;10039;42.632;23.408;2023-03-19T03:35:31;95541.56;;;1.87;65.69
19761;BME280;10039;42.632;23.408;2023-03-19T03:37:57;95537.91;;;1.76;65.86
19761;BME280;10039;42.632;23.408;2023-03-19T03:40:23;95551.75;;;1.73;66.07
19761;BME280;10039;42.632;23.408;2023-03-19T03:42:49;95540.06;;;1.55;66.34
19761;BME280;10039;42.632;23.408;2023-03-19T03:45:15;95555.66;;;1.64;66.26
19761;BME280;10039;42.632;23.408;2023-03-19T03:47:40;95557.00;;;1.73;66.06
19761;BME280;10039;42.632;23.408;2023-03-19T03:50:07;95562.53;;;1.84;65.82
19761;BME280;10039;42.632;23.408;2023-03-19T03:52:35;95564.03;;;2.00;65.43
19761;BME280;10039;42.632;23.408;2023-03-19T03:55:01;95552.34;;;1.98;64.90
19761;BME280;10039;42.632;23.408;2023-03-19T03:57:27;95559.59;;;2.19;64.85
19761;BME280;10039;42.632;23.408;2023-03-19T03:59:53;95562.81;;;2.28;64.44
19761;BME280;10039;42.632;23.408;2023-03-19T04:02:19;95559.06;;;2.29;64.28
19761;BME280;10039;42.632;23.408;2023-03-19T04:04:44;95539.44;;;2.27;64.16
19761;BME280;10039;42.632;23.408;2023-03-19T04:07:10;95556.25;;;2.38;64.00
19761;BME280;10039;42.632;23.408;2023-03-19T04:09:36;95542.94;;;2.16;64.17
19761;BME280;10039;42.632;23.408;2023-03-19T04:12:02;95547.00;;;2.28;64.07
19761;BME280;10039;42.632;23.408;2023-03-19T04:14:27;95519.06;;;1.90;64.50
19761;BME280;10039;42.632;23.408;2023-03-19T04:16:53;95553.69;;;1.92;65.24
19761;BME280;10039;42.632;23.408;2023-03-19T04:19:18;95542.09;;;1.77;65.54
19761;BME280;10039;42.632;23.408;2023-03-19T04:21:44;95564.41;;;1.68;66.28
19761;BME280;10039;42.632;23.408;2023-03-19T04:24:09;95514.50;;;1.40;65.96
19761;BME280;10039;42.632;23.408;2023-03-19T04:26:36;95562.03;;;1.63;66.57
19761;BME280;10039;42.632;23.408;2023-03-19T04:29:01;95567.16;;;1.44;66.81
19761;BME280;10039;42.632;23.408;2023-03-19T04:31:27;95571.59;;;1.40;67.13
19761;BME280;10039;42.632;23.408;2023-03-19T04:33:52;95546.56;;;1.46;66.44
19761;BME280;10039;42.632;23.408;2023-03-19T04:36:18;95574.38;;;1.47;66.51
19761;BME280;10039;42.632;23.408;2023-03-19T04:38:44;95566.59;;;1.35;66.48
19761;BME280;10039;42.632;23.408;2023-03-19T04:41:09;95558.78;;;1.54;66.58
19761;BME280;10039;42.632;23.408;2023-03-19T04:43:35;95558.72;;;1.50;66.21
19761;BME280;10039;42.632;23.408;2023-03-19T04:46:00;95580.25;;;1.71;66.28
19761;BME280;10039;42.632;23.408;2023-03-19T04:48:26;95570.50;;;1.87;65.71
19761;BME280;10039;42.632;23.408;2023-03-19T04:50:51;95568.81;;;1.95;65.43
19761;BME280;10039;42.632;23.408;2023-03-19T04:53:21;95565.13;;;1.99;64.99
19761;BME280;10039;42.632;23.408;2023-03-19T04:55:47;95572.03;;;1.88;65.54
19761;BME280;10039;42.632;23.408;2023-03-19T04:58:13;95564.72;;;1.82;65.74
19761;BME280;10039;42.632;23.408;2023-03-19T05:00:38;95578.56;;;1.79;66.18
19761;BME280;10039;42.632;23.408;2023-03-19T05:03:04;95576.44;;;1.69;66.72
19761;BME280;10039;42.632;23.408;2023-03-19T05:05:29;95576.69;;;1.64;66.91
19761;BME280;10039;42.632;23.408;2023-03-19T05:07:55;95564.94;;;1.30;67.39
19761;BME280;10039;42.632;23.408;2023-03-19T05:10:21;95578.63;;;1.36;68.49
19761;BME280;10039;42.632;23.408;2023-03-19T05:12:47;95569.31;;;1.54;67.99
19761;BME280;10039;42.632;23.408;2023-03-19T05:15:13;95573.03;;;1.53;68.27
19761;BME280;10039;42.632;23.408;2023-03-19T05:17:39;95548.44;;;1.30;68.32
19761;BME280;10039;42.632;23.408;2023-03-19T05:20:05;95578.47;;;1.44;68.41
19761;BME280;10039;42.632;23.408;2023-03-19T05:22:31;95535.09;;;1.23;68.46
19761;BME280;10039;42.632;23.408;2023-03-19T05:24:56;95578.66;;;1.67;68.72
19761;BME280;10039;42.632;23.408;2023-03-19T05:27:22;95580.44;;;1.78;68.18
19761;BME280;10039;42.632;23.408;2023-03-19T05:29:47;95579.50;;;1.71;68.02
19761;BME280;10039;42.632;23.408;2023-03-19T05:32:13;95578.06;;;1.89;67.99
19761;BME280;10039;42.632;23.408;2023-03-19T05:34:38;95582.13;;;2.02;67.24
19761;BME280;10039;42.632;23.408;2023-03-19T05:37:04;95580.06;;;2.11;66.76
19761;BME280;10039;42.632;23.408;2023-03-19T05:39:29;95576.69;;;2.10;66.70
19761;BME280;10039;42.632;23.408;2023-03-19T05:41:55;95547.06;;;1.98;66.49
19761;BME280;10039;42.632;23.408;2023-03-19T05:44:20;95575.28;;;2.31;66.17
19761;BME280;10039;42.632;23.408;2023-03-19T05:46:46;95561.97;;;2.24;66.26
19761;BME280;10039;42.632;23.408;2023-03-19T05:49:12;95568.94;;;2.51;65.89
19761;BME280;10039;42.632;23.408;2023-03-19T05:51:38;95578.31;;;2.49;65.01
19761;BME280;10039;42.632;23.408;2023-03-19T05:54:03;95573.09;;;2.52;65.51
19761;BME280;10039;42.632;23.408;2023-03-19T05:56:28;95567.63;;;2.61;65.71
19761;BME280;10039;42.632;23.408;2023-03-19T05:58:54;95568.13;;;2.66;65.04
19761;BME280;10039;42.632;23.408;2023-03-19T06:01:20;95571.78;;;2.62;65.71
19761;BME280;10039;42.632;23.408;2023-03-19T06:03:46;95573.00;;;2.83;65.62
19761;BME280;10039;42.632;23.408;2023-03-19T06:06:11;95551.06;;;2.79;64.34
19761;BME280;10039;42.632;23.408;2023-03-19T06:08:36;95567.31;;;3.00;64.18
19761;BME280;10039;42.632;23.408;2023-03-19T06:11:02;95560.63;;;3.06;64.11
19761;BME280;10039;42.632;23.408;2023-03-19T06:13:28;95566.81;;;3.14;63.97
19761;BME280;10039;42.632;23.408;2023-03-19T06:15:53;95562.22;;;3.29;64.19
19761;BME280;10039;42.632;23.408;2023-03-19T06:18:18;95563.72;;;3.49;63.97
19761;BME280;10039;42.632;23.408;2023-03-19T06:20:45;95569.38;;;3.74;62.39
19761;BME280;10039;42.632;23.408;2023-03-19T06:23:11;95575.44;;;3.97;62.68
19761;BME280;10039;42.632;23.408;2023-03-19T06:25:36;95577.31;;;3.96;61.97
19761;BME280;10039;42.632;23.408;2023-03-19T06:28:03;95580.22;;;4.14;61.93
19761;BME280;10039;42.632;23.408;2023-03-19T06:30:28;95572.00;;;4.19;60.92
19761;BME280;10039;42.632;23.408;2023-03-19T06:32:54;95567.13;;;4.21;61.38
19761;BME280;10039;42.632;23.408;2023-03-19T06:35:19;95573.41;;;4.13;61.30
19761;BME280;10039;42.632;23.408;2023-03-19T06:37:45;95571.03;;;4.30;60.30
19761;BME280;10039;42.632;23.408;2023-03-19T06:40:10;95579.41;;;4.36;60.06
19761;BME280;10039;42.632;23.408;2023-03-19T06:42:36;95584.69;;;4.36;60.33
19761;BME280;10039;42.632;23.408;2023-03-19T06:45:02;95558.53;;;4.53;61.04
19761;BME280;10039;42.632;23.408;2023-03-19T06:47:27;95588.84;;;4.88;59.86
19761;BME280;10039;42.632;23.408;2023-03-19T06:49:53;95578.91;;;5.11;59.13
19761;BME280;10039;42.632;23.408;2023-03-19T06:52:18;95570.59;;;5.13;58.92
19761;BME280;10039;42.632;23.408;2023-03-19T06:54:43;95590.59;;;5.43;57.56
19761;BME280;10039;42.632;23.408;2023-03-19T06:57:09;95594.47;;;5.52;57.40
19761;BME280;10039;42.632;23.408;2023-03-19T06:59:35;95594.22;;;5.28;56.92
19761;BME280;10039;42.632;23.408;2023-03-19T07:02:01;95566.38;;;5.38;57.97
19761;BME280;10039;42.632;23.408;2023-03-19T07:04:32;95587.22;;;5.79;57.33
19761;BME280;10039;42.632;23.408;2023-03-19T07:06:57;95584.69;;;5.93;55.70
19761;BME280;10039;42.632;23.408;2023-03-19T07:09:22;95588.25;;;6.11;54.33
19761;BME280;10039;42.632;23.408;2023-03-19T07:11:48;95602.09;;;6.41;55.38
19761;BME280;10039;42.632;23.408;2023-03-19T07:14:14;95592.47;;;6.69;53.78
19761;BME280;10039;42.632;23.408;2023-03-19T07:16:40;95598.31;;;6.42;53.26
19761;BME280;10039;42.632;23.408;2023-03-19T07:19:05;95595.28;;;6.40;54.00
19761;BME280;10039;42.632;23.408;2023-03-19T07:21:31;95565.53;;;6.10;53.97
19761;BME280;10039;42.632;23.408;2023-03-19T07:23:56;95591.50;;;6.41;54.34
19761;BME280;10039;42.632;23.408;2023-03-19T07:26:22;95582.59;;;6.69;54.39
19761;BME280;10039;42.632;23.408;2023-03-19T07:28:47;95591.03;;;6.92;52.28
19761;BME280;10039;42.632;23.408;2023-03-19T07:31:13;95577.72;;;6.78;53.06
19761;BME280;10039;42.632;23.408;2023-03-19T07:33:38;95569.19;;;7.16;53.54
19761;BME280;10039;42.632;23.408;2023-03-19T07:36:04;95582.91;;;7.39;53.32
19761;BME280;10039;42.632;23.408;2023-03-19T07:38:30;95582.97;;;7.60;53.18
19761;BME280;10039;42.632;23.408;2023-03-19T07:40:55;95558.72;;;7.79;54.04
19761;BME280;10039;42.632;23.408;2023-03-19T07:43:21;95566.34;;;8.43;52.86
19761;BME280;10039;42.632;23.408;2023-03-19T07:45:46;95566.69;;;8.14;51.40
19761;BME280;10039;42.632;23.408;2023-03-19T07:48:12;95579.25;;;8.34;52.15
19761;BME280;10039;42.632;23.408;2023-03-19T07:50:37;95541.28;;;8.27;50.52
19761;BME280;10039;42.632;23.408;2023-03-19T07:53:03;95576.91;;;8.85;51.09
19761;BME280;10039;42.632;23.408;2023-03-19T07:55:34;95567.81;;;8.76;49.51
19761;BME280;10039;42.632;23.408;2023-03-19T07:58:02;95569.19;;;9.11;49.75
19761;BME280;10039;42.632;23.408;2023-03-19T08:00:27;95568.38;;;9.28;49.27
19761;BME280;10039;42.632;23.408;2023-03-19T08:02:53;95569.97;;;9.08;47.69
19761;BME280;10039;42.632;23.408;2023-03-19T08:05:18;95564.66;;;9.08;48.94
19761;BME280;10039;42.632;23.408;2023-03-19T08:07:44;95571.06;;;9.25;49.58
19761;BME280;10039;42.632;23.408;2023-03-19T08:10:10;95578.09;;;9.63;47.53
19761;BME280;10039;42.632;23.408;2023-03-19T08:12:36;95567.44;;;9.63;47.40
19761;BME280;10039;42.632;23.408;2023-03-19T08:15:06;95558.88;;;9.92;47.83
19761;BME280;10039;42.632;23.408;2023-03-19T08:17:32;95559.91;;;9.51;46.08
19761;BME280;10039;42.632;23.408;2023-03-19T08:20:03;95577.81;;;9.43;46.10
19761;BME280;10039;42.632;23.408;2023-03-19T08:22:29;95572.66;;;9.80;48.47
19761;BME280;10039;42.632;23.408;2023-03-19T08:24:55;95563.34;;;10.12;47.72
19761;BME280;10039;42.632;23.408;2023-03-19T08:27:20;95574.78;;;10.57;47.75
19761;BME280;10039;42.632;23.408;2023-03-19T08:29:46;95569.03;;;10.58;45.82
19761;BME280;10039;42.632;23.408;2023-03-19T08:32:11;95577.19;;;10.85;46.11
19761;BME280;10039;42.632;23.408;2023-03-19T08:34:36;95570.53;;;11.00;43.82
19761;BME280;10039;42.632;23.408;2023-03-19T08:37:02;95558.97;;;10.73;43.81
19761;BME280;10039;42.632;23.408;2023-03-19T08:39:27;95559.78;;;10.70;45.13
19761;BME280;10039;42.632;23.408;2023-03-19T08:41:53;95562.06;;;11.05;45.58
19761;BME280;10039;42.632;23.408;2023-03-19T08:44:18;95559.50;;;10.98;43.88
19761;BME280;10039;42.632;23.408;2023-03-19T08:46:44;95561.03;;;10.99;44.81
19761;BME280;10039;42.632;23.408;2023-03-19T08:49:09;95538.16;;;10.94;44.14
19761;BME280;10039;42.632;23.408;2023-03-19T08:51:35;95546.78;;;11.09;43.48
19761;BME280;10039;42.632;23.408;2023-03-19T08:54:00;95544.19;;;11.02;43.99
19761;BME280;10039;42.632;23.408;2023-03-19T08:56:26;95543.31;;;11.12;44.37
19761;BME280;10039;42.632;23.408;2023-03-19T08:58:51;95524.13;;;10.87;43.11
19761;BME280;10039;42.632;23.408;2023-03-19T09:01:17;95521.44;;;10.53;43.77
19761;BME280;10039;42.632;23.408;2023-03-19T09:03:43;95499.16;;;10.33;43.56
19761;BME280;10039;42.632;23.408;2023-03-19T09:06:10;95537.53;;;10.83;44.09
19761;BME280;10039;42.632;23.408;2023-03-19T09:08:37;95530.94;;;10.95;43.78
19761;BME280;10039;42.632;23.408;2023-03-19T09:11:03;95525.22;;;10.93;44.25
19761;BME280;10039;42.632;23.408;2023-03-19T09:13:29;95523.72;;;10.92;42.71
19761;BME280;10039;42.632;23.408;2023-03-19T09:15:55;95525.44;;;10.72;43.47
19761;BME280;10039;42.632;23.408;2023-03-19T09:18:20;95497.16;;;10.78;45.02
19761;BME280;10039;42.632;23.408;2023-03-19T09:20:48;95515.88;;;11.08;43.90
19761;BME280;10039;42.632;23.408;2023-03-19T09:23:14;95522.97;;;11.21;43.61
19761;BME280;10039;42.632;23.408;2023-03-19T09:25:40;95517.25;;;11.19;42.61
19761;BME280;10039;42.632;23.408;2023-03-19T09:28:05;95523.53;;;11.06;42.77
19761;BME280;10039;42.632;23.408;2023-03-19T09:30:31;95491.75;;;10.85;42.52
19761;BME280;10039;42.632;23.408;2023-03-19T09:32:56;95515.56;;;11.02;45.49
19761;BME280;10039;42.632;23.408;2023-03-19T09:35:21;95517.22;;;11.22;42.33
19761;BME280;10039;42.632;23.408;2023-03-19T09:37:47;95516.88;;;11.20;43.50
19761;BME280;10039;42.632;23.408;2023-03-19T09:40:43;95487.78;;;10.96;42.05
19761;BME280;10039;42.632;23.408;2023-03-19T09:45:50;95506.75;;;11.05;42.82
19761;BME280;10039;42.632;23.408;2023-03-19T09:48:46;95501.78;;;11.07;42.21
19761;BME280;10039;42.632;23.408;2023-03-19T09:51:20;95512.06;;;11.09;43.28
19761;BME280;10039;42.632;23.408;2023-03-19T09:53:57;95505.06;;;11.18;41.61
19761;BME280;10039;42.632;23.408;2023-03-19T09:56:25;95503.25;;;11.12;41.56
19761;BME280;10039;42.632;23.408;2023-03-19T09:58:52;95480.28;;;10.84;40.63
19761;BME280;10039;42.632;23.408;2023-03-19T10:01:31;95479.97;;;10.79;40.85
19761;BME280;10039;42.632;23.408;2023-03-19T10:07:13;95480.66;;;10.86;41.34
19761;BME280;10039;42.632;23.408;2023-03-19T10:10:09;95479.13;;;10.89;43.69
19761;BME280;10039;42.632;23.408;2023-03-19T10:13:12;95488.72;;;11.13;43.00
19761;BME280;10039;42.632;23.408;2023-03-19T10:15:35;95467.72;;;11.14;42.01
19761;BME280;10039;42.632;23.408;2023-03-19T10:18:08;95476.97;;;11.07;42.04
19761;BME280;10039;42.632;23.408;2023-03-19T10:20:57;95474.84;;;10.95;42.46
19761;BME280;10039;42.632;23.408;2023-03-19T10:23:36;95470.75;;;10.87;42.17
19761;BME280;10039;42.632;23.408;2023-03-19T10:26:07;95460.06;;;10.87;42.42
19761;BME280;10039;42.632;23.408;2023-03-19T10:28:35;95465.56;;;11.03;41.98
19761;BME280;10039;42.632;23.408;2023-03-19T10:31:11;95451.16;;;10.97;43.16
19761;BME280;10039;42.632;23.408;2023-03-19T10:33:43;95433.81;;;10.82;43.20
19761;BME280;10039;42.632;23.408;2023-03-19T10:36:11;95449.66;;;10.96;41.97
19761;BME280;10039;42.632;23.408;2023-03-19T10:38:41;95432.72;;;11.06;42.88
19761;BME280;10039;42.632;23.408;2023-03-19T10:43:57;95421.44;;;11.21;41.87
19761;BME280;10039;42.632;23.408;2023-03-19T10:46:24;95426.78;;;11.21;42.79
19761;BME280;10039;42.632;23.408;2023-03-19T10:48:49;95405.78;;;11.23;41.42
19761;BME280;10039;42.632;23.408;2023-03-19T10:51:20;95418.22;;;11.33;41.44
19761;BME280;10039;42.632;23.408;2023-03-19T10:53:47;95414.78;;;11.32;40.85
19761;BME280;10039;42.632;23.408;2023-03-19T10:56:23;95406.03;;;11.32;41.85
19761;BME280;10039;42.632;23.408;2023-03-19T10:59:10;95407.03;;;11.41;41.43
19761;BME280;10039;42.632;23.408;2023-03-19T11:01:44;95397.66;;;11.30;42.06
19761;BME280;10039;42.632;23.408;2023-03-19T11:04:21;95400.97;;;11.37;41.82
19761;BME280;10039;42.632;23.408;2023-03-19T11:06:51;95375.81;;;11.35;41.33
19761;BME280;10039;42.632;23.408;2023-03-19T11:09:23;95384.13;;;11.40;41.21
19761;BME280;10039;42.632;23.408;2023-03-19T11:11:53;95392.34;;;11.53;40.87
19761;BME280;10039;42.632;23.408;2023-03-19T11:14:33;95376.75;;;11.48;40.85
19761;BME280;10039;42.632;23.408;2023-03-19T11:22:22;95366.03;;;11.74;40.86
19761;BME280;10039;42.632;23.408;2023-03-19T11:24:51;95360.75;;;11.71;40.89
19761;BME280;10039;42.632;23.408;2023-03-19T11:27:17;95315.25;;;11.51;41.20
19761;BME280;10039;42.632;23.408;2023-03-19T11:29:44;95343.84;;;11.77;40.75
19761;BME280;10039;42.632;23.408;2023-03-19T11:35:09;95348.44;;;11.96;40.59
19761;BME280;10039;42.632;23.408;2023-03-19T11:37:55;95335.03;;;12.00;40.57
19761;BME280;10039;42.632;23.408;2023-03-19T11:40:52;95331.94;;;12.01;41.15
19761;BME280;10039;42.632;23.408;2023-03-19T11:43:43;95331.00;;;12.11;40.79
19761;BME280;10039;42.632;23.408;2023-03-19T11:51:51;95310.66;;;12.33;40.92
19761;BME280;10039;42.632;23.408;2023-03-19T11:54:26;95301.81;;;12.36;39.71
19761;BME280;10039;42.632;23.408;2023-03-19T11:57:00;95291.69;;;12.27;39.54
19761;BME280;10039;42.632;23.408;2023-03-19T11:59:40;95304.34;;;12.43;40.46
19761;BME280;10039;42.632;23.408;2023-03-19T12:02:30;95305.44;;;12.45;40.00
19761;BME280;10039;42.632;23.408;2023-03-19T12:05:09;95295.03;;;12.51;39.90
19761;BME280;10039;42.632;23.408;2023-03-19T12:11:00;95301.78;;;12.55;40.26
19761;BME280;10039;42.632;23.408;2023-03-19T12:35:25;95265.16;;;13.04;40.12
19761;BME280;10039;42.632;23.408;2023-03-19T12:41:24;95248.00;;;13.01;40.15
19761;BME280;10039;42.632;23.408;2023-03-19T12:49:02;95254.84;;;13.34;40.05
19761;BME280;10039;42.632;23.408;2023-03-19T12:52:07;95228.81;;;13.19;38.86
19761;BME280;10039;42.632;23.408;2023-03-19T12:54:42;95247.72;;;13.43;39.49
19761;BME280;10039;42.632;23.408;2023-03-19T12:57:44;95249.59;;;13.59;38.58
19761;BME280;10039;42.632;23.408;2023-03-19T13:00:25;95228.09;;;13.46;38.75
19761;BME280;10039;42.632;23.408;2023-03-19T13:03:18;95219.56;;;13.36;38.45
19761;BME280;10039;42.632;23.408;2023-03-19T13:10:57;95220.19;;;13.55;38.86
19761;BME280;10039;42.632;23.408;2023-03-19T13:15:51;95228.56;;;13.86;38.51
19761;BME280;10039;42.632;23.408;2023-03-19T13:23:47;95199.88;;;13.70;38.48
19761;BME280;10039;42.632;23.408;2023-03-19T13:26:15;95210.34;;;13.93;38.53
19761;BME280;10039;42.632;23.408;2023-03-19T13:29:07;95216.72;;;14.12;38.09
19761;BME280;10039;42.632;23.408;2023-03-19T13:31:35;95189.84;;;13.99;38.14
19761;BME280;10039;42.632;23.408;2023-03-19T13:34:03;95180.50;;;14.04;37.96
19761;BME280;10039;42.632;23.408;2023-03-19T13:36:35;95170.88;;;14.06;37.39
19761;BME280;10039;42.632;23.408;2023-03-19T13:39:02;95201.75;;;14.39;37.74
19761;BME280;10039;42.632;23.408;2023-03-19T13:46:51;95180.69;;;14.38;37.48
19761;BME280;10039;42.632;23.408;2023-03-19T13:49:26;95166.31;;;14.32;38.99
19761;BME280;10039;42.632;23.408;2023-03-19T13:51:56;95193.25;;;14.53;37.87
19761;BME280;10039;42.632;23.408;2023-03-19T13:54:40;95181.13;;;14.49;38.34
19761;BME280;10039;42.632;23.408;2023-03-19T13:59:42;95161.66;;;14.57;37.90
19761;BME280;10039;42.632;23.408;2023-03-19T14:04:51;95148.16;;;14.48;38.02
19761;BME280;10039;42.632;23.408;2023-03-19T14:07:23;95161.34;;;14.55;37.52
19761;BME280;10039;42.632;23.408;2023-03-19T14:17:32;95174.44;;;14.90;38.01
19761;BME280;10039;42.632;23.408;2023-03-19T14:26:10;95171.84;;;14.87;37.89
19761;BME280;10039;42.632;23.408;2023-03-19T14:28:59;95168.28;;;14.90;37.49
19761;BME280;10039;42.632;23.408;2023-03-19T14:31:30;95172.06;;;14.92;37.60
19761;BME280;10039;42.632;23.408;2023-03-19T14:34:05;95173.91;;;14.95;37.40
19761;BME280;10039;42.632;23.408;2023-03-19T14:36:37;95177.75;;;14.94;37.26
19761;BME280;10039;42.632;23.408;2023-03-19T14:41:49;95156.47;;;15.00;36.86
19761;BME280;10039;42.632;23.408;2023-03-19T14:50:41;95147.97;;;14.89;36.85